createdAt,value
2022-12-13T00:01:31.370Z,22.85
2022-12-13T00:04:01.174Z,25.48
2022-12-13T00:06:30.589Z,23.15
2022-12-13T00:08:59.252Z,24.23
2022-12-13T00:11:28.483Z,27.45
2022-12-13T00:13:58.095Z,26.15
2022-12-13T00:16:27.782Z,27.17
2022-12-13T00:18:57.190Z,21.77
2022-12-13T00:21:27.645Z,24.98
2022-12-13T00:23:56.024Z,28.88
2022-12-13T00:26:26.339Z,25.85
2022-12-13T00:28:54.824Z,26.02
2022-12-13T00:34:14.218Z,26.42
2022-12-13T00:36:42.187Z,23.20
2022-12-13T00:39:12.771Z,24.77
2022-12-13T00:41:40.895Z,25.92
2022-12-13T00:44:08.799Z,27.20
2022-12-13T00:46:38.693Z,25.95
2022-12-13T00:49:07.025Z,24.58
2022-12-13T00:51:35.952Z,26.02
2022-12-13T00:54:03.857Z,24.38
2022-12-13T00:56:33.033Z,22.80
2022-12-13T00:59:01.269Z,24.50
2022-12-13T01:01:32.260Z,26.73
2022-12-13T01:04:04.145Z,25.75
2022-12-13T01:06:36.417Z,23.63
2022-12-13T01:09:05.616Z,24.40
2022-12-13T01:11:34.347Z,23.90
2022-12-13T01:14:02.498Z,30.02
2022-12-13T01:16:30.610Z,21.00
2022-12-13T01:18:59.140Z,29.70
2022-12-13T01:21:29.937Z,23.48
2022-12-13T01:24:03.313Z,25.45
2022-12-13T01:26:31.705Z,25.27
2022-12-13T01:28:59.683Z,29.60
2022-12-13T01:31:28.108Z,26.48
2022-12-13T01:33:56.266Z,27.83
2022-12-13T01:36:28.021Z,24.73
2022-12-13T01:38:58.600Z,28.45
2022-12-13T01:41:27.934Z,22.45
2022-12-13T01:44:03.000Z,26.50
2022-12-13T01:46:32.345Z,28.83
2022-12-13T01:49:06.121Z,30.00
2022-12-13T01:51:52.678Z,26.27
2022-12-13T01:54:33.685Z,25.90
2022-12-13T01:57:06.446Z,29.13
2022-12-13T01:59:35.709Z,28.23
2022-12-13T02:02:03.932Z,23.83
2022-12-13T02:04:37.381Z,28.60
2022-12-13T02:07:14.141Z,28.73
2022-12-13T02:09:56.803Z,26.20
2022-12-13T02:12:30.168Z,25.48
2022-12-13T02:15:01.110Z,29.17
2022-12-13T02:17:44.518Z,27.70
2022-12-13T02:20:51.973Z,26.50
2022-12-13T02:23:50.423Z,24.55
2022-12-13T02:26:42.817Z,26.50
2022-12-13T02:29:41.625Z,24.10
2022-12-13T02:32:16.511Z,26.15
2022-12-13T02:34:50.504Z,24.85
2022-12-13T02:37:24.281Z,27.08
2022-12-13T02:40:00.767Z,27.45
2022-12-13T02:42:34.797Z,26.88
2022-12-13T02:45:07.527Z,25.10
2022-12-13T02:47:39.291Z,27.55
2022-12-13T02:50:09.732Z,25.20
2022-12-13T02:52:38.948Z,26.88
2022-12-13T02:55:08.702Z,28.35
2022-12-13T02:57:38.446Z,26.60
2022-12-13T03:00:09.354Z,27.73
2022-12-13T03:02:47.424Z,22.67
2022-12-13T03:05:44.371Z,28.38
2022-12-13T03:08:22.754Z,25.23
2022-12-13T03:11:00.712Z,26.67
2022-12-13T03:13:36.941Z,23.60
2022-12-13T03:16:22.698Z,24.20
2022-12-13T03:18:54.107Z,24.95
2022-12-13T03:21:22.202Z,32.50
2022-12-13T03:23:50.153Z,27.42
2022-12-13T03:26:22.072Z,28.02
2022-12-13T03:28:50.018Z,26.75
2022-12-13T03:31:18.290Z,34.80
2022-12-13T03:33:46.921Z,28.90
2022-12-13T03:36:17.314Z,27.30
2022-12-13T03:38:45.564Z,26.02
2022-12-13T03:41:18.426Z,23.85
2022-12-13T03:43:47.036Z,26.75
2022-12-13T03:46:15.444Z,30.40
2022-12-13T03:48:43.356Z,28.83
2022-12-13T03:51:11.325Z,30.30
2022-12-13T03:53:40.570Z,25.90
2022-12-13T03:56:09.126Z,26.83
2022-12-13T03:58:38.350Z,29.98
2022-12-13T04:01:07.861Z,27.55
2022-12-13T04:03:36.221Z,24.40
2022-12-13T04:06:05.384Z,28.48
2022-12-13T04:08:33.862Z,31.38
2022-12-13T04:11:24.689Z,28.65
2022-12-13T04:13:51.865Z,27.80
2022-12-13T04:16:20.011Z,28.70
2022-12-13T04:18:48.104Z,25.73
2022-12-13T04:21:16.374Z,31.33
2022-12-13T04:23:44.308Z,31.67
2022-12-13T04:26:13.591Z,28.40
2022-12-13T04:28:41.507Z,27.33
2022-12-13T04:31:09.479Z,26.73
2022-12-13T04:33:37.406Z,28.88
2022-12-13T04:36:07.279Z,28.75
2022-12-13T04:38:35.185Z,35.10
2022-12-13T04:41:08.530Z,28.85
2022-12-13T04:43:37.930Z,30.02
2022-12-13T04:46:06.184Z,28.02
2022-12-13T04:48:34.550Z,32.17
2022-12-13T04:51:04.049Z,26.80
2022-12-13T04:53:32.135Z,31.75
2022-12-13T04:56:00.406Z,32.13
2022-12-13T04:58:29.336Z,32.40
2022-12-13T05:00:58.695Z,32.92
2022-12-13T05:03:27.930Z,30.38
2022-12-13T05:05:56.877Z,29.17
2022-12-13T05:08:24.772Z,27.85
2022-12-13T05:10:52.685Z,28.33
2022-12-13T05:13:20.546Z,27.88
2022-12-13T05:15:55.341Z,29.38
2022-12-13T05:18:24.719Z,27.92
2022-12-13T05:20:53.247Z,32.08
2022-12-13T05:23:23.144Z,30.80
2022-12-13T05:25:51.253Z,26.13
2022-12-13T05:28:27.877Z,27.33
2022-12-13T05:30:59.221Z,30.42
2022-12-13T05:33:28.698Z,31.85
2022-12-13T05:36:01.303Z,27.85
2022-12-13T05:38:30.861Z,24.80
2022-12-13T05:40:59.296Z,31.08
2022-12-13T05:43:42.015Z,29.45
2022-12-13T05:46:14.144Z,27.38
2022-12-13T05:48:43.823Z,30.98
2022-12-13T05:51:12.350Z,25.90
2022-12-13T05:53:42.140Z,26.65
2022-12-13T05:56:11.508Z,27.55
2022-12-13T05:58:40.867Z,24.35
2022-12-13T06:01:10.408Z,27.30
2022-12-13T06:03:38.549Z,26.38
2022-12-13T06:06:09.896Z,29.90
2022-12-13T06:08:38.442Z,26.85
2022-12-13T06:11:11.261Z,26.77
2022-12-13T06:13:42.838Z,23.33
2022-12-13T06:16:21.661Z,26.58
2022-12-13T06:19:00.915Z,25.92
2022-12-13T06:21:43.500Z,27.58
2022-12-13T06:24:14.695Z,27.63
2022-12-13T06:26:42.817Z,29.05
2022-12-13T06:29:13.726Z,26.98
2022-12-13T06:32:02.004Z,26.90
2022-12-13T06:34:33.246Z,27.35
2022-12-13T06:37:03.580Z,28.02
2022-12-13T06:39:32.493Z,24.67
2022-12-13T06:42:02.551Z,24.38
2022-12-13T06:44:30.412Z,27.20
2022-12-13T06:47:10.630Z,25.23
2022-12-13T06:49:41.421Z,22.95
2022-12-13T06:52:12.952Z,27.27
2022-12-13T06:54:41.409Z,20.73
2022-12-13T06:57:09.513Z,21.55
2022-12-13T06:59:37.784Z,22.42
2022-12-13T07:02:24.560Z,22.50
2022-12-13T07:04:53.435Z,23.27
2022-12-13T07:07:23.094Z,25.42
2022-12-13T07:09:51.005Z,24.80
2022-12-13T07:12:20.865Z,24.85
2022-12-13T07:14:49.527Z,23.73
2022-12-13T07:17:32.640Z,26.65
2022-12-13T07:20:09.255Z,27.40
2022-12-13T07:22:45.178Z,23.30
2022-12-13T07:25:28.217Z,25.67
2022-12-13T07:28:02.179Z,21.20
2022-12-13T07:30:31.224Z,24.40
2022-12-13T07:32:59.147Z,24.33
2022-12-13T07:35:27.057Z,22.98
2022-12-13T07:37:56.667Z,21.98
2022-12-13T07:40:24.495Z,24.52
2022-12-13T07:42:52.431Z,24.65
2022-12-13T07:45:20.496Z,23.70
2022-12-13T07:47:48.513Z,23.17
2022-12-13T07:50:24.603Z,27.63
2022-12-13T07:52:54.373Z,27.50
2022-12-13T07:55:33.708Z,23.25
2022-12-13T07:58:06.998Z,23.05
2022-12-13T08:00:34.965Z,24.63
2022-12-13T08:03:02.968Z,26.80
2022-12-13T08:05:38.251Z,29.23
2022-12-13T08:08:08.908Z,22.85
2022-12-13T08:10:39.101Z,26.70
2022-12-13T08:13:07.252Z,24.75
2022-12-13T08:15:35.112Z,27.50
2022-12-13T08:18:03.934Z,28.75
2022-12-13T08:20:31.836Z,24.20
2022-12-13T08:23:01.981Z,25.88
2022-12-13T08:25:31.618Z,30.13
2022-12-13T08:28:01.482Z,24.98
2022-12-13T08:30:31.080Z,23.08
2022-12-13T08:32:59.032Z,27.48
2022-12-13T08:35:34.552Z,24.88
2022-12-13T08:38:03.442Z,28.50
2022-12-13T08:40:31.258Z,25.73
2022-12-13T08:43:00.451Z,27.52
2022-12-13T08:45:28.481Z,26.20
2022-12-13T08:47:59.236Z,26.75
2022-12-13T08:50:27.652Z,26.67
2022-12-13T08:52:57.407Z,26.95
2022-12-13T08:55:32.099Z,35.55
2022-12-13T08:58:08.359Z,28.95
2022-12-13T09:00:36.799Z,28.60
2022-12-13T09:03:05.772Z,26.02
2022-12-13T09:05:38.166Z,26.20
2022-12-13T09:08:22.997Z,25.37
2022-12-13T09:10:59.948Z,29.07
2022-12-13T09:13:31.620Z,24.87
2022-12-13T09:16:04.537Z,24.93
2022-12-13T09:18:36.517Z,24.27
2022-12-13T09:21:11.310Z,24.43
2022-12-13T09:23:46.120Z,27.77
2022-12-13T09:26:17.348Z,23.63
2022-12-13T09:28:46.571Z,22.77
2022-12-13T09:31:17.074Z,20.53
2022-12-13T09:33:45.545Z,26.00
2022-12-13T09:36:14.968Z,22.70
2022-12-13T09:38:42.929Z,20.03
2022-12-13T09:41:21.134Z,20.50
2022-12-13T09:44:02.534Z,21.87
2022-12-13T09:46:34.360Z,19.30
2022-12-13T09:49:05.218Z,22.57
2022-12-13T09:51:47.330Z,20.90
2022-12-13T09:54:21.767Z,22.20
2022-12-13T09:56:51.532Z,21.47
2022-12-13T09:59:27.037Z,16.47
2022-12-13T10:01:55.802Z,19.53
2022-12-13T10:04:24.094Z,15.97
2022-12-13T10:06:54.521Z,22.77
2022-12-13T10:09:22.824Z,21.77
2022-12-13T10:11:52.706Z,20.23
2022-12-13T10:14:27.337Z,22.00
2022-12-13T10:16:58.771Z,18.53
2022-12-13T10:19:32.699Z,21.83
2022-12-13T10:22:02.973Z,17.77
2022-12-13T10:24:48.314Z,19.33
2022-12-13T10:27:18.682Z,19.90
2022-12-13T10:30:10.659Z,17.73
2022-12-13T10:32:48.889Z,17.57
2022-12-13T10:35:26.429Z,17.50
2022-12-13T10:37:55.246Z,17.33
2022-12-13T10:40:33.142Z,18.43
2022-12-13T10:43:13.232Z,17.23
2022-12-13T10:45:43.472Z,15.50
2022-12-13T10:48:22.090Z,19.00
2022-12-13T10:51:02.913Z,19.03
2022-12-13T10:53:34.216Z,18.07
2022-12-13T10:56:03.938Z,15.53
2022-12-13T10:58:40.375Z,16.27
2022-12-13T11:01:21.941Z,15.63
2022-12-13T11:04:02.553Z,17.27
2022-12-13T11:06:43.239Z,18.00
2022-12-13T11:09:23.182Z,14.20
2022-12-13T11:11:58.022Z,16.33
2022-12-13T11:14:31.839Z,17.33
2022-12-13T11:17:08.612Z,17.37
2022-12-13T11:19:45.475Z,15.90
2022-12-13T11:22:22.635Z,15.20
2022-12-13T11:24:52.617Z,15.17
2022-12-13T11:27:38.686Z,15.33
2022-12-13T11:30:16.114Z,21.93
2022-12-13T11:33:04.831Z,17.60
2022-12-13T11:35:42.603Z,17.20
2022-12-13T11:38:23.901Z,20.73
2022-12-13T11:40:56.771Z,16.37
2022-12-13T11:43:29.727Z,15.53
2022-12-13T11:46:03.103Z,19.00
2022-12-13T11:48:42.009Z,14.97
2022-12-13T11:51:13.707Z,15.77
2022-12-13T11:53:54.785Z,18.00
2022-12-13T11:56:26.774Z,17.70
2022-12-13T11:59:03.892Z,22.27
2022-12-13T12:01:41.225Z,17.70
2022-12-13T12:04:20.678Z,16.50
2022-12-13T12:06:54.811Z,17.00
2022-12-13T12:09:29.004Z,17.43
2022-12-13T12:12:02.101Z,17.47
2022-12-13T12:14:41.078Z,18.83
2022-12-13T12:17:13.718Z,17.70
2022-12-13T12:19:46.638Z,16.03
2022-12-13T12:22:25.794Z,19.80
2022-12-13T12:25:04.994Z,17.90
2022-12-13T12:27:43.503Z,18.23
2022-12-13T12:30:23.466Z,15.23
2022-12-13T12:33:00.306Z,16.77
2022-12-13T12:36:00.577Z,19.37
2022-12-13T12:38:51.582Z,17.57
2022-12-13T12:41:33.677Z,14.30
2022-12-13T12:44:12.617Z,17.03
2022-12-13T12:47:09.466Z,15.87
2022-12-13T12:50:17.896Z,16.40
2022-12-13T12:53:00.439Z,15.07
2022-12-13T12:55:38.342Z,18.33
2022-12-13T12:58:17.724Z,18.77
2022-12-13T13:00:56.297Z,15.97
2022-12-13T13:03:26.898Z,18.07
2022-12-13T13:06:02.430Z,20.67
2022-12-13T13:08:37.046Z,19.97
2022-12-13T13:11:24.429Z,20.47
2022-12-13T13:14:06.463Z,15.13
2022-12-13T13:16:37.519Z,15.90
2022-12-13T13:19:06.096Z,14.35
2022-12-13T13:21:47.236Z,14.50
2022-12-13T13:24:24.670Z,16.07
2022-12-13T13:26:54.991Z,18.60
2022-12-13T13:29:35.551Z,16.83
2022-12-13T13:32:29.253Z,16.57
2022-12-13T13:35:51.087Z,14.20
2022-12-13T13:38:54.252Z,13.23
2022-12-13T13:41:56.473Z,12.93
2022-12-13T13:45:10.527Z,14.67
2022-12-13T13:47:41.221Z,14.33
2022-12-13T13:50:55.179Z,14.53
2022-12-13T13:53:59.523Z,14.10
2022-12-13T13:56:39.297Z,12.63
2022-12-13T13:59:53.713Z,12.03
2022-12-13T14:03:22.230Z,14.57
2022-12-13T14:06:42.872Z,12.73
2022-12-13T14:09:33.293Z,11.95
2022-12-13T14:12:51.030Z,14.95
2022-12-13T14:15:58.610Z,11.27
2022-12-13T14:19:11.209Z,12.73
2022-12-13T14:22:09.994Z,11.80
2022-12-13T14:24:51.556Z,11.95
2022-12-13T14:27:35.621Z,13.25
2022-12-13T14:30:09.632Z,12.55
2022-12-13T14:32:53.834Z,12.90
2022-12-13T14:35:27.729Z,13.02
2022-12-13T14:38:00.733Z,12.52
2022-12-13T14:40:31.675Z,13.00
2022-12-13T14:42:59.990Z,15.20
2022-12-13T14:45:30.433Z,17.77
2022-12-13T14:48:02.238Z,11.33
2022-12-13T14:50:34.431Z,14.75
2022-12-13T14:53:03.618Z,14.23
2022-12-13T14:55:33.568Z,13.77
2022-12-13T14:58:03.751Z,14.25
2022-12-13T15:00:35.255Z,15.63
2022-12-13T15:03:05.693Z,14.45
2022-12-13T15:05:38.014Z,12.75
2022-12-13T15:08:10.676Z,17.52
2022-12-13T15:10:42.106Z,15.45
2022-12-13T15:13:26.111Z,13.55
2022-12-13T15:16:01.137Z,13.52
2022-12-13T15:18:31.281Z,14.13
2022-12-13T15:20:59.619Z,15.40
2022-12-13T15:23:31.284Z,16.58
2022-12-13T15:26:01.097Z,12.77
2022-12-13T15:28:32.823Z,13.10
2022-12-13T15:31:02.030Z,13.30
2022-12-13T15:33:35.424Z,12.55
2022-12-13T15:36:10.503Z,14.43
2022-12-13T15:38:41.522Z,15.15
2022-12-13T15:41:18.111Z,18.65
2022-12-13T15:43:49.148Z,12.93
2022-12-13T15:46:25.991Z,19.20
2022-12-13T15:48:56.984Z,20.05
2022-12-13T15:51:29.331Z,15.23
2022-12-13T15:54:08.081Z,16.67
2022-12-13T15:56:38.673Z,11.55
2022-12-13T15:59:24.356Z,14.57
2022-12-13T16:01:58.017Z,15.52
2022-12-13T16:04:30.076Z,16.85
2022-12-13T16:06:59.034Z,14.35
2022-12-13T16:09:30.966Z,16.73
2022-12-13T16:12:01.317Z,14.18
2022-12-13T16:14:49.450Z,19.92
2022-12-13T16:17:24.415Z,15.70
2022-12-13T16:19:54.841Z,14.85
2022-12-13T16:22:23.932Z,18.48
2022-12-13T16:24:53.244Z,15.85
2022-12-13T16:27:21.713Z,12.63
2022-12-13T16:29:49.783Z,13.35
2022-12-13T16:32:17.712Z,13.77
2022-12-13T16:34:45.612Z,15.85
2022-12-13T16:37:25.676Z,13.57
2022-12-13T16:39:54.957Z,13.00
2022-12-13T16:42:26.083Z,12.73
2022-12-13T16:45:17.802Z,15.25
2022-12-13T16:47:48.346Z,14.80
2022-12-13T16:50:18.690Z,16.90
2022-12-13T16:52:48.171Z,12.98
2022-12-13T16:55:16.535Z,17.15
2022-12-13T16:57:44.479Z,14.02
2022-12-13T17:00:14.022Z,10.15
2022-12-13T17:02:42.101Z,15.77
2022-12-13T17:05:10.468Z,13.90
2022-12-13T17:07:38.354Z,13.07
2022-12-13T17:10:10.304Z,16.17
2022-12-13T17:12:38.342Z,18.08
2022-12-13T17:15:08.477Z,17.60
2022-12-13T17:17:37.901Z,14.23
2022-12-13T17:20:06.639Z,15.43
2022-12-13T17:22:34.622Z,16.33
2022-12-13T17:25:02.625Z,13.77
2022-12-13T17:27:32.578Z,14.73
2022-12-13T17:30:01.143Z,17.52
2022-12-13T17:32:29.523Z,14.10
2022-12-13T17:34:57.991Z,13.60
2022-12-13T17:37:26.379Z,12.27
2022-12-13T17:39:54.301Z,13.82
2022-12-13T17:42:22.137Z,14.70
2022-12-13T17:44:51.390Z,11.93
2022-12-13T17:47:19.328Z,11.40
2022-12-13T17:49:47.193Z,10.52
2022-12-13T17:52:15.087Z,13.93
2022-12-13T17:54:42.980Z,11.20
2022-12-13T17:57:11.830Z,14.07
2022-12-13T17:59:43.112Z,10.25
2022-12-13T18:02:14.051Z,12.98
2022-12-13T18:04:43.011Z,10.38
2022-12-13T18:07:10.869Z,12.07
2022-12-13T18:09:38.781Z,14.05
2022-12-13T18:12:08.427Z,11.43
2022-12-13T18:14:36.541Z,13.30
2022-12-13T18:17:04.538Z,12.98
2022-12-13T18:19:34.154Z,12.30
2022-12-13T18:22:02.653Z,14.57
2022-12-13T18:24:30.609Z,13.50
2022-12-13T18:26:58.686Z,12.20
2022-12-13T18:29:27.533Z,13.02
2022-12-13T18:31:55.509Z,9.05
2022-12-13T18:34:23.360Z,11.38
2022-12-13T18:36:52.975Z,11.50
2022-12-13T18:39:21.000Z,12.52
2022-12-13T18:41:48.902Z,10.98
2022-12-13T18:44:16.838Z,10.43
2022-12-13T18:46:46.307Z,9.70
2022-12-13T18:49:14.481Z,12.48
2022-12-13T18:51:42.411Z,13.65
2022-12-13T18:54:12.279Z,11.07
2022-12-13T18:56:40.218Z,11.77
2022-12-13T18:59:08.261Z,11.48
2022-12-13T19:01:36.259Z,9.88
2022-12-13T19:04:04.291Z,12.25
2022-12-13T19:06:32.176Z,10.85
2022-12-13T19:09:00.127Z,12.80
2022-12-13T19:11:29.995Z,12.85
2022-12-13T19:13:58.199Z,11.23
2022-12-13T19:16:27.538Z,12.75
2022-12-13T19:18:55.714Z,12.80
2022-12-13T19:21:23.912Z,10.65
2022-12-13T19:23:57.493Z,10.20
2022-12-13T19:26:27.974Z,12.13
2022-12-13T19:28:59.006Z,13.38
2022-12-13T19:31:31.714Z,13.18
2022-12-13T19:34:01.281Z,11.13
2022-12-13T19:36:30.310Z,12.73
2022-12-13T19:38:58.657Z,10.57
2022-12-13T19:41:27.028Z,11.68
2022-12-13T19:43:54.995Z,16.10
2022-12-13T19:46:24.680Z,12.75
2022-12-13T19:48:52.792Z,13.65
2022-12-13T19:51:21.423Z,12.68
2022-12-13T19:53:49.624Z,16.08
2022-12-13T19:56:19.450Z,11.77
2022-12-13T19:58:48.537Z,14.38
2022-12-13T20:01:17.789Z,11.43
2022-12-13T20:03:47.798Z,12.38
2022-12-13T20:06:20.508Z,11.10
2022-12-13T20:08:48.823Z,14.35
2022-12-13T20:11:20.076Z,16.95
2022-12-13T20:13:49.199Z,13.45
2022-12-13T20:16:18.561Z,17.35
2022-12-13T20:18:48.822Z,14.68
2022-12-13T20:21:16.935Z,17.38
2022-12-13T20:23:49.390Z,19.27
2022-12-13T20:26:20.816Z,14.85
2022-12-13T20:28:48.935Z,12.75
2022-12-13T20:31:18.876Z,13.18
2022-12-13T20:33:49.027Z,13.52
2022-12-13T20:36:26.690Z,12.73
2022-12-13T20:38:56.494Z,12.23
2022-12-13T20:41:25.869Z,14.80
2022-12-13T20:43:54.359Z,10.07
2022-12-13T20:46:23.198Z,13.55
2022-12-13T20:48:52.883Z,12.88
2022-12-13T20:51:22.759Z,13.18
2022-12-13T20:53:52.353Z,13.18
2022-12-13T20:56:22.724Z,14.90
2022-12-13T20:58:51.362Z,11.10
2022-12-13T21:01:20.830Z,13.55
2022-12-13T21:03:49.440Z,11.23
2022-12-13T21:06:18.667Z,10.68
2022-12-13T21:08:52.868Z,10.95
2022-12-13T21:11:25.806Z,11.45
2022-12-13T21:13:56.170Z,12.25
2022-12-13T21:16:25.867Z,12.10
2022-12-13T21:18:55.348Z,13.02
2022-12-13T21:21:25.549Z,13.90
2022-12-13T21:23:55.023Z,10.30
2022-12-13T21:26:24.248Z,12.10
2022-12-13T21:28:56.555Z,13.27
2022-12-13T21:31:25.075Z,12.05
2022-12-13T21:33:54.826Z,11.10
2022-12-13T21:36:25.518Z,11.52
2022-12-13T21:38:54.755Z,13.95
2022-12-13T21:41:23.471Z,14.50
2022-12-13T21:43:52.054Z,11.13
2022-12-13T21:46:21.677Z,12.32
2022-12-13T21:48:50.638Z,10.57
2022-12-13T21:51:20.299Z,10.18
2022-12-13T21:53:50.762Z,11.60
2022-12-13T21:56:38.934Z,10.25
2022-12-13T21:59:19.070Z,11.75
2022-12-13T22:02:07.103Z,10.55
2022-12-13T22:04:36.583Z,12.63
2022-12-13T22:07:06.689Z,11.82
2022-12-13T22:09:37.089Z,14.93
2022-12-13T22:12:08.820Z,12.20
2022-12-13T22:14:37.206Z,11.15
2022-12-13T22:17:05.117Z,13.77
2022-12-13T22:19:33.111Z,12.20
2022-12-13T22:22:01.118Z,12.02
2022-12-13T22:24:29.047Z,11.30
2022-12-13T22:26:58.218Z,12.07
2022-12-13T22:29:26.276Z,13.20
2022-12-13T22:31:54.285Z,11.32
2022-12-13T22:34:22.325Z,12.63
2022-12-13T22:36:50.138Z,14.18
2022-12-13T22:39:18.959Z,10.80
2022-12-13T22:41:47.880Z,13.98
2022-12-13T22:44:18.655Z,12.35
2022-12-13T22:46:46.528Z,13.05
2022-12-13T22:49:15.145Z,10.25
2022-12-13T22:51:43.280Z,12.10
2022-12-13T22:54:11.244Z,9.63
2022-12-13T22:56:39.191Z,11.95
2022-12-13T22:59:08.208Z,9.60
2022-12-13T23:01:39.968Z,11.98
2022-12-13T23:04:08.284Z,13.88
2022-12-13T23:06:38.321Z,10.38
2022-12-13T23:09:08.094Z,13.05
2022-12-13T23:11:53.789Z,11.50
2022-12-13T23:14:27.020Z,12.90
2022-12-13T23:16:56.768Z,8.95
2022-12-13T23:19:41.472Z,11.32
2022-12-13T23:22:13.819Z,8.93
2022-12-13T23:24:41.806Z,9.88
2022-12-13T23:27:09.760Z,8.73
2022-12-13T23:29:37.889Z,10.32
2022-12-13T23:32:07.449Z,10.82
2022-12-13T23:34:35.540Z,9.75
2022-12-13T23:37:03.508Z,10.57
2022-12-13T23:39:31.455Z,10.80
2022-12-13T23:41:59.412Z,8.18
2022-12-13T23:44:27.287Z,8.05
2022-12-13T23:46:55.240Z,10.82
2022-12-13T23:49:24.513Z,10.77
2022-12-13T23:51:52.427Z,9.88
2022-12-13T23:54:20.354Z,10.48
2022-12-13T23:56:48.603Z,8.85
2022-12-13T23:59:16.491Z,10.77
